Time;durP1;ratioP1;P1;durP2;ratioP2;P2;SDS_P1;SDS_P2;PMS_P1;PMS_P2;Temp;Humidity;BMP_temperature;BMP_pressure;BME280_temperature;BME280_humidity;BME280_pressure;Samples;Min_cycle;Max_cycle;Signal;HPM_P1;HPM_P2
2024/01/15 00:00:04;;;;;;;16.83;11.82;;;9.10;96.70;;;;;;5051034;28;20438;-74
2024/01/15 00:02:37;;;;;;;13.23;11.13;;;9.10;96.70;;;;;;5066129;28;20052;-74
2024/01/15 00:05:11;;;;;;;14.88;11.35;;;9.10;96.70;;;;;;5055443;28;20143;-74
2024/01/15 00:07:42;;;;;;;14.82;12.38;;;9.10;96.70;;;;;;5051450;28;20062;-74
2024/01/15 00:10:13;;;;;;;14.20;11.45;;;9.10;96.70;;;;;;5067126;28;20063;-74
2024/01/15 00:12:48;;;;;;;12.98;11.02;;;9.10;96.70;;;;;;5066657;28;20620;-74
2024/01/15 00:16:06;;;;;;;14.63;11.38;;;9.10;96.70;;;;;;5027068;28;20068;-75
2024/01/15 00:18:38;;;;;;;15.35;11.32;;;9.10;96.70;;;;;;5016413;28;20079;-75
2024/01/15 00:21:07;;;;;;;14.35;12.10;;;9.10;96.70;;;;;;5011499;28;20484;-74
2024/01/15 00:26:57;;;;;;;13.02;10.63;;;9.10;96.70;;;;;;4984515;28;20131;-73
2024/01/15 00:29:28;;;;;;;15.30;12.50;;;9.10;96.70;;;;;;5014543;28;20528;-75
2024/01/15 00:31:57;;;;;;;13.85;11.57;;;9.00;96.70;;;;;;4993984;28;20533;-74
2024/01/15 00:34:26;;;;;;;15.27;11.60;;;9.00;96.70;;;;;;5004599;28;20154;-74
2024/01/15 00:37:12;;;;;;;13.98;12.35;;;9.00;96.70;;;;;;5012868;28;20056;-74
2024/01/15 00:39:44;;;;;;;13.32;11.80;;;9.00;96.70;;;;;;5018120;28;20056;-74
2024/01/15 00:42:14;;;;;;;17.02;12.82;;;9.10;96.70;;;;;;5010105;28;20076;-74
2024/01/15 00:44:49;;;;;;;15.18;12.18;;;9.10;96.70;;;;;;5020847;28;20749;-74
2024/01/15 00:52:03;;;;;;;16.58;11.88;;;9.10;96.70;;;;;;5085655;28;20039;-73
2024/01/15 00:54:32;;;;;;;15.38;11.73;;;9.00;96.70;;;;;;5079679;28;20063;-74
2024/01/15 00:57:04;;;;;;;15.55;11.07;;;9.10;96.70;;;;;;5050106;28;20559;-75
2024/01/15 00:59:38;;;;;;;13.70;11.23;;;9.10;96.70;;;;;;5050754;28;20052;-73
2024/01/15 01:02:07;;;;;;;13.40;10.98;;;9.10;96.70;;;;;;5049300;28;20558;-74
2024/01/15 01:08:38;;;;;;;14.65;11.73;;;9.00;96.70;;;;;;5068343;28;20592;-73
2024/01/15 01:11:45;;;;;;;13.07;11.10;;;9.10;96.70;;;;;;5049206;28;20100;-73
2024/01/15 01:14:14;;;;;;;16.48;11.45;;;9.10;96.70;;;;;;5029196;28;20064;-74
2024/01/15 01:20:28;;;;;;;13.40;11.25;;;9.10;96.70;;;;;;5024552;28;20584;-74
2024/01/15 01:23:09;;;;;;;12.85;10.50;;;9.10;96.70;;;;;;5043952;28;20053;-74
2024/01/15 01:26:19;;;;;;;13.73;11.10;;;9.10;96.70;;;;;;5027563;28;20097;-73
2024/01/15 01:28:48;;;;;;;13.93;10.65;;;9.10;96.70;;;;;;5033588;28;20638;-74
2024/01/15 01:31:16;;;;;;;14.35;11.75;;;9.10;96.70;;;;;;5023863;28;20064;-73
2024/01/15 01:33:45;;;;;;;15.57;12.07;;;9.00;96.70;;;;;;5047676;28;20208;-74
2024/01/15 01:36:16;;;;;;;13.52;11.45;;;9.00;96.70;;;;;;5048959;28;20059;-73
2024/01/15 01:38:45;;;;;;;12.25;10.95;;;9.00;96.70;;;;;;5061408;28;20060;-74
2024/01/15 01:41:13;;;;;;;15.38;11.75;;;9.00;96.70;;;;;;5040016;28;20110;-74
2024/01/15 01:43:43;;;;;;;13.35;10.75;;;9.10;96.70;;;;;;5034636;28;20505;-75
2024/01/15 01:46:16;;;;;;;13.00;11.50;;;9.00;96.70;;;;;;5029386;28;20061;-74
2024/01/15 01:48:45;;;;;;;15.23;11.32;;;9.00;96.70;;;;;;5048599;28;20056;-74
2024/01/15 01:51:16;;;;;;;15.13;12.60;;;9.00;96.70;;;;;;5044775;28;20578;-75
2024/01/15 01:53:45;;;;;;;15.02;11.30;;;9.00;96.70;;;;;;5028405;28;20414;-74
2024/01/15 01:56:17;;;;;;;15.05;12.50;;;9.00;96.70;;;;;;5029095;28;20061;-74
2024/01/15 01:58:47;;;;;;;15.45;12.55;;;9.10;96.70;;;;;;5040682;28;20425;-73
2024/01/15 02:01:17;;;;;;;15.30;12.93;;;9.10;96.70;;;;;;5041401;28;20707;-74
2024/01/15 02:03:47;;;;;;;14.25;12.15;;;9.00;96.70;;;;;;5044939;28;20049;-74
2024/01/15 02:06:18;;;;;;;14.10;12.43;;;9.00;96.70;;;;;;5049343;28;20060;-75
2024/01/15 02:08:47;;;;;;;18.17;13.93;;;9.10;96.70;;;;;;5028995;28;20103;-75
2024/01/15 02:15:00;;;;;;;16.58;12.85;;;9.00;96.70;;;;;;5085531;28;20710;-74
2024/01/15 02:17:45;;;;;;;15.30;11.93;;;9.00;96.70;;;;;;5064285;28;20509;-74
2024/01/15 02:20:14;;;;;;;16.98;13.75;;;9.10;96.70;;;;;;5066340;28;20586;-74
2024/01/15 02:22:45;;;;;;;13.32;11.63;;;9.00;96.70;;;;;;5051664;28;20044;-73
2024/01/15 02:25:15;;;;;;;15.40;12.23;;;8.90;96.70;;;;;;5051936;28;20055;-74
2024/01/15 02:27:52;;;;;;;15.30;12.15;;;8.80;96.70;;;;;;5045541;28;20662;-74
2024/01/15 02:34:37;;;;;;;15.85;13.23;;;8.90;96.70;;;;;;5086787;28;20631;-74
2024/01/15 02:37:06;;;;;;;16.80;12.57;;;8.80;96.70;;;;;;5068484;28;20443;-73
2024/01/15 02:39:49;;;;;;;15.70;12.07;;;8.90;96.70;;;;;;5052369;28;20060;-74
2024/01/15 02:42:27;;;;;;;13.90;11.95;;;8.90;96.70;;;;;;5047952;28;20052;-73
2024/01/15 02:45:05;;;;;;;14.50;12.13;;;8.80;96.70;;;;;;5065124;28;20071;-73
2024/01/15 02:47:34;;;;;;;14.95;12.10;;;8.90;96.70;;;;;;5084887;28;20055;-74
2024/01/15 02:50:04;;;;;;;14.93;12.50;;;8.80;96.70;;;;;;5067704;28;20067;-74
2024/01/15 02:52:41;;;;;;;17.35;12.95;;;8.80;96.70;;;;;;5048683;28;20553;-73
2024/01/15 02:55:45;;;;;;;16.25;11.93;;;8.90;96.70;;;;;;5069339;28;20334;-74
2024/01/15 02:58:25;;;;;;;14.32;11.45;;;8.90;96.70;;;;;;5051216;28;20487;-74
2024/01/15 03:00:56;;;;;;;14.32;11.88;;;8.90;96.70;;;;;;5064428;28;20052;-74
2024/01/15 03:03:29;;;;;;;12.77;11.38;;;8.90;96.70;;;;;;5068638;28;20056;-73
2024/01/15 03:05:58;;;;;;;15.23;12.25;;;8.90;96.70;;;;;;5051681;28;20056;-74
2024/01/15 03:08:48;;;;;;;13.18;11.73;;;8.90;96.70;;;;;;5065169;28;20580;-72
2024/01/15 03:11:19;;;;;;;16.50;11.60;;;8.90;96.70;;;;;;5066804;28;20428;-74
2024/01/15 03:14:00;;;;;;;14.25;11.10;;;8.90;96.70;;;;;;5069265;28;20060;-74
2024/01/15 03:21:18;;;;;;;15.38;12.10;;;9.00;96.70;;;;;;5070005;28;20058;-73
2024/01/15 03:23:48;;;;;;;14.48;11.55;;;9.00;96.70;;;;;;5067262;28;20048;-73
2024/01/15 03:26:25;;;;;;;15.18;12.80;;;9.00;96.70;;;;;;5067027;28;20649;-73
2024/01/15 03:29:06;;;;;;;14.50;11.80;;;9.00;96.70;;;;;;5069188;28;20048;-74
2024/01/15 03:31:35;;;;;;;15.70;12.68;;;8.90;96.70;;;;;;5060008;28;20060;-74
2024/01/15 03:38:19;;;;;;;15.63;11.70;;;9.00;96.70;;;;;;5083683;28;20573;-74
2024/01/15 03:40:54;;;;;;;15.48;12.57;;;9.00;96.70;;;;;;5065428;28;20083;-74
2024/01/15 03:43:23;;;;;;;14.77;12.93;;;9.00;96.70;;;;;;5088266;28;20090;-74
2024/01/15 03:45:54;;;;;;;16.05;12.40;;;9.00;96.70;;;;;;5088360;28;20146;-74
2024/01/15 03:48:23;;;;;;;17.33;13.68;;;8.90;96.70;;;;;;5069779;28;20059;-73
2024/01/15 03:50:53;;;;;;;13.70;12.20;;;8.90;96.70;;;;;;5070500;28;20052;-74
2024/01/15 03:53:24;;;;;;;14.30;12.35;;;8.90;96.70;;;;;;5059021;28;20052;-74
2024/01/15 03:55:54;;;;;;;19.35;13.68;;;8.90;96.70;;;;;;5073535;28;20103;-73
2024/01/15 03:58:23;;;;;;;15.63;12.57;;;8.90;96.70;;;;;;5066429;28;20076;-72
2024/01/15 04:04:00;;;;;;;13.85;11.88;;;9.00;96.70;;;;;;5064340;28;20056;-74
2024/01/15 04:06:30;;;;;;;14.93;11.27;;;9.00;96.70;;;;;;5059463;28;20060;-74
2024/01/15 04:17:24;;;;;;;14.43;11.77;;;9.00;96.70;;;;;;5025849;28;20131;-74
2024/01/15 04:19:54;;;;;;;14.88;12.50;;;9.00;96.70;;;;;;5015668;28;20056;-74
2024/01/15 04:23:17;;;;;;;15.95;11.93;;;9.00;96.70;;;;;;5064163;28;20543;-74
2024/01/15 04:29:01;;;;;;;12.73;11.38;;;9.00;96.70;;;;;;5083975;28;20087;-73
2024/01/15 04:31:30;;;;;;;13.23;10.98;;;9.00;96.70;;;;;;5053760;28;20063;-74
2024/01/15 04:34:00;;;;;;;12.60;11.13;;;9.00;96.70;;;;;;5051074;28;20424;-73
2024/01/15 04:36:34;;;;;;;12.60;11.30;;;9.00;96.70;;;;;;5066803;28;20055;-74
2024/01/15 04:39:03;;;;;;;13.48;11.50;;;9.00;96.70;;;;;;5081544;28;20416;-74
2024/01/15 04:41:35;;;;;;;13.60;11.20;;;9.00;96.70;;;;;;5070731;28;20539;-74
2024/01/15 04:44:05;;;;;;;12.27;10.48;;;9.00;96.70;;;;;;5053772;28;20485;-74
2024/01/15 04:46:36;;;;;;;11.25;9.98;;;9.00;96.70;;;;;;5054763;28;20508;-74
2024/01/15 04:49:05;;;;;;;10.95;9.73;;;9.00;96.70;;;;;;5070718;28;20083;-74
2024/01/15 04:51:38;;;;;;;11.80;10.25;;;8.90;96.70;;;;;;5049848;28;20050;-73
2024/01/15 04:54:17;;;;;;;;;;;;;;;;;;;;;
2024/01/15 04:57:10;;;;;;;13.68;10.35;;;9.00;96.70;;;;;;5069582;28;20052;-74
2024/01/15 04:59:39;;;;;;;11.25;9.90;;;9.00;96.70;;;;;;5055268;28;20060;-74
2024/01/15 05:02:31;;;;;;;13.20;10.48;;;9.00;96.70;;;;;;5054886;28;20201;-74
2024/01/15 05:05:00;;;;;;;11.32;10.00;;;9.00;96.70;;;;;;5053166;28;20554;-74
2024/01/15 05:07:31;;;;;;;10.38;8.82;;;9.00;96.70;;;;;;5053910;28;20052;-74
2024/01/15 05:10:21;;;;;;;9.80;8.55;;;9.00;96.70;;;;;;5065527;28;20080;-74
2024/01/15 05:12:50;;;;;;;9.82;8.27;;;9.00;96.70;;;;;;5053031;28;20089;-74
2024/01/15 05:15:19;;;;;;;11.57;8.63;;;9.00;96.70;;;;;;5069036;28;20055;-74
2024/01/15 05:17:48;;;;;;;9.48;7.80;;;9.00;96.70;;;;;;5069437;28;20056;-74
2024/01/15 05:23:26;;;;;;;8.50;6.85;;;9.00;96.70;;;;;;5062048;28;20058;-74
2024/01/15 05:25:55;;;;;;;10.43;6.97;;;9.00;96.70;;;;;;5068805;28;20161;-74
2024/01/15 05:28:24;;;;;;;9.70;7.50;;;9.00;96.70;;;;;;5069266;28;20075;-74
2024/01/15 05:30:55;;;;;;;10.32;7.45;;;9.00;96.70;;;;;;5084752;28;20056;-74
2024/01/15 05:33:35;;;;;;;;;;;;;;;;;;;;;
2024/01/15 05:36:38;;;;;;;10.20;7.45;;;9.00;96.70;;;;;;5079400;28;20479;-74
2024/01/15 05:39:25;;;;;;;8.90;7.60;;;9.00;96.70;;;;;;5064871;28;20135;-74
2024/01/15 05:41:54;;;;;;;9.15;8.05;;;9.00;96.70;;;;;;5057111;28;20051;-72
2024/01/15 05:44:34;;;;;;;;;;;;;;;;;;;;;
2024/01/15 05:47:29;;;;;;;10.43;8.75;;;9.00;96.70;;;;;;5068981;28;20061;-74
2024/01/15 05:49:59;;;;;;;10.43;9.02;;;9.00;96.70;;;;;;5068528;28;20056;-74
2024/01/15 05:57:26;;;;;;;10.70;8.57;;;9.00;96.70;;;;;;5021715;28;20156;-74
2024/01/15 05:59:57;;;;;;;11.35;8.63;;;9.00;96.70;;;;;;5026673;28;20131;-74
2024/01/15 06:02:40;;;;;;;12.32;8.85;;;9.00;96.70;;;;;;5074738;28;20072;-74
2024/01/15 06:05:09;;;;;;;11.65;9.52;;;9.00;96.70;;;;;;5067891;28;20051;-74
2024/01/15 06:07:38;;;;;;;11.95;8.43;;;9.00;96.70;;;;;;5051894;28;20059;-73
2024/01/15 06:10:12;;;;;;;13.88;9.77;;;8.90;96.70;;;;;;5051849;28;20052;-74
2024/01/15 06:12:41;;;;;;;10.75;9.07;;;8.90;96.70;;;;;;5054416;28;20067;-73
2024/01/15 06:15:22;;;;;;;;;;;;;;;;;;;;;
2024/01/15 06:17:58;;;;;;;11.43;9.55;;;8.90;96.70;;;;;;5037173;28;20057;-74
2024/01/15 06:20:54;;;;;;;10.05;8.65;;;8.90;96.70;;;;;;5039269;28;20077;-74
2024/01/15 06:23:25;;;;;;;12.43;10.35;;;8.90;96.70;;;;;;5045163;28;20063;-74
2024/01/15 06:25:54;;;;;;;10.48;9.27;;;8.90;96.70;;;;;;5061196;28;20060;-73
2024/01/15 06:28:39;;;;;;;12.05;9.70;;;8.90;96.70;;;;;;5049071;28;20139;-73
2024/01/15 06:32:16;;;;;;;13.73;9.95;;;8.90;96.70;;;;;;5023822;28;20570;-74
2024/01/15 06:34:45;;;;;;;12.88;10.13;;;8.80;96.70;;;;;;5002249;28;20053;-74
2024/01/15 06:37:23;;;;;;;14.63;10.27;;;8.80;96.70;;;;;;5023577;28;20061;-74
2024/01/15 06:40:01;;;;;;;12.27;9.95;;;8.90;96.70;;;;;;5012061;28;20053;-74
2024/01/15 06:42:30;;;;;;;12.10;10.25;;;8.80;96.70;;;;;;5036985;28;20081;-74
2024/01/15 06:45:14;;;;;;;11.60;9.90;;;8.80;96.70;;;;;;5023883;28;20554;-74
2024/01/15 06:47:45;;;;;;;11.80;10.38;;;8.90;96.70;;;;;;5023455;28;20112;-74
2024/01/15 06:50:21;;;;;;;13.13;9.98;;;8.80;96.70;;;;;;4999173;28;20057;-74
2024/01/15 06:52:50;;;;;;;11.85;10.43;;;8.80;96.70;;;;;;5039627;28;20071;-74
2024/01/15 06:55:19;;;;;;;11.48;9.98;;;8.90;96.70;;;;;;4990550;28;20057;-74
2024/01/15 06:57:49;;;;;;;11.30;9.68;;;8.90;96.70;;;;;;5007317;28;20284;-74
2024/01/15 07:00:19;;;;;;;10.95;9.52;;;8.90;96.70;;;;;;4999857;28;20145;-73
2024/01/15 07:02:51;;;;;;;12.13;9.70;;;8.90;96.70;;;;;;5040024;28;21426;-74
2024/01/15 07:05:31;;;;;;;;;;;;;;;;;;;;;
2024/01/15 07:09:17;;;;;;;11.48;10.13;;;8.90;96.70;;;;;;4999948;28;20264;-74
2024/01/15 07:11:47;;;;;;;13.13;11.48;;;8.90;96.70;;;;;;4983604;28;20056;-74
2024/01/15 07:14:37;;;;;;;13.20;9.82;;;8.90;96.70;;;;;;5066432;28;20087;-74
2024/01/15 07:17:31;;;;;;;13.80;10.75;;;8.90;96.70;;;;;;5088991;28;20625;-74
2024/01/15 07:20:12;;;;;;;11.60;9.43;;;9.00;96.70;;;;;;5068436;28;20052;-74
2024/01/15 07:22:42;;;;;;;13.20;10.98;;;9.00;96.70;;;;;;5059671;28;20060;-75
2024/01/15 07:25:44;;;;;;;12.88;10.98;;;9.00;96.70;;;;;;5071614;28;20044;-74
2024/01/15 07:28:24;;;;;;;11.20;10.10;;;9.00;96.70;;;;;;5066554;28;20041;-74
2024/01/15 07:31:03;;;;;;;;;;;;;;;;;;;;;
2024/01/15 07:38:55;;;;;;;;;;;;;;;;;;;;;
2024/01/15 07:41:49;;;;;;;11.32;9.98;;;9.00;96.70;;;;;;5085514;28;20055;-74
2024/01/15 07:44:20;;;;;;;12.75;10.63;;;9.10;96.70;;;;;;5054467;28;20048;-74
2024/01/15 07:47:12;;;;;;;12.40;10.73;;;9.10;96.70;;;;;;5081152;28;20060;-75
2024/01/15 07:50:18;;;;;;;;;;;9.10;96.70;;;;;;5035133;28;20059;-75
2024/01/15 07:52:47;;;;;;;14.23;11.33;;;9.10;96.70;;;;;;5083013;28;19963;-71
2024/01/15 07:55:19;;;;;;;12.90;10.70;;;9.10;96.70;;;;;;5053007;28;20072;-72
2024/01/15 07:57:49;;;;;;;12.90;10.95;;;9.10;96.70;;;;;;5084020;28;20113;-73
2024/01/15 08:01:06;;;;;;;12.07;10.68;;;9.20;96.70;;;;;;5061971;28;20056;-74
2024/01/15 08:03:39;;;;;;;13.18;10.60;;;9.20;96.70;;;;;;5070932;28;20667;-75
2024/01/15 08:06:09;;;;;;;11.77;10.02;;;9.30;96.70;;;;;;5065630;28;20052;-73
2024/01/15 08:08:42;;;;;;;13.15;10.63;;;9.30;96.70;;;;;;5070769;28;20058;-76
2024/01/15 08:11:12;;;;;;;12.27;10.98;;;9.40;96.70;;;;;;5069527;28;20064;-76
2024/01/15 08:13:41;;;;;;;14.55;11.98;;;9.40;96.70;;;;;;5073897;28;20131;-73
2024/01/15 08:16:10;;;;;;;13.55;11.57;;;9.40;96.70;;;;;;5070159;28;20758;-76
2024/01/15 08:18:41;;;;;;;14.38;11.02;;;9.50;96.70;;;;;;5069970;28;20083;-73
2024/01/15 08:21:10;;;;;;;12.90;10.82;;;9.60;96.70;;;;;;5072628;28;20098;-73
2024/01/15 08:23:38;;;;;;;12.82;11.38;;;9.70;96.70;;;;;;5060351;28;20051;-76
2024/01/15 08:26:08;;;;;;;13.05;11.05;;;9.80;96.70;;;;;;5063370;28;20760;-75
2024/01/15 08:28:39;;;;;;;13.32;11.45;;;9.90;96.70;;;;;;5069223;28;20055;-75
2024/01/15 08:31:09;;;;;;;14.80;11.25;;;9.90;96.70;;;;;;5087195;28;20436;-74
2024/01/15 08:33:38;;;;;;;12.07;10.27;;;9.90;96.70;;;;;;5089564;28;20489;-74
2024/01/15 08:36:07;;;;;;;11.65;9.75;;;9.90;96.70;;;;;;5051289;28;20063;-74
2024/01/15 08:38:35;;;;;;;15.05;10.43;;;10.00;96.70;;;;;;5076606;28;20052;-75
2024/01/15 08:41:04;;;;;;;11.15;9.77;;;10.10;96.70;;;;;;5053874;28;20055;-74
2024/01/15 08:43:32;;;;;;;13.45;10.10;;;10.10;96.70;;;;;;5056948;28;20527;-75
2024/01/15 08:46:02;;;;;;;13.82;10.85;;;10.20;96.70;;;;;;5057201;28;20420;-75
2024/01/15 08:48:31;;;;;;;13.10;11.00;;;10.20;96.70;;;;;;5069299;28;20067;-75
2024/01/15 08:50:59;;;;;;;13.18;10.00;;;10.20;96.70;;;;;;5059392;28;20080;-75
2024/01/15 08:53:27;;;;;;;11.82;10.25;;;10.20;96.70;;;;;;5048789;28;20063;-74
2024/01/15 08:55:56;;;;;;;15.27;11.35;;;10.30;96.70;;;;;;5059465;28;20142;-73
2024/01/15 08:58:24;;;;;;;13.85;11.27;;;10.30;96.70;;;;;;5074665;28;20782;-74
2024/01/15 09:00:52;;;;;;;13.73;10.70;;;10.40;96.70;;;;;;5052070;28;20538;-76
2024/01/15 09:03:22;;;;;;;12.77;10.65;;;10.40;96.70;;;;;;5048991;28;20135;-75
2024/01/15 09:05:50;;;;;;;11.75;10.52;;;10.50;96.70;;;;;;5072926;28;20109;-76
2024/01/15 09:08:19;;;;;;;13.02;10.27;;;10.40;96.70;;;;;;5066911;28;20052;-76
2024/01/15 09:10:47;;;;;;;12.00;10.07;;;10.40;96.70;;;;;;5067238;28;20067;-76
2024/01/15 09:13:16;;;;;;;11.57;10.10;;;10.50;96.70;;;;;;5070562;28;20048;-75
2024/01/15 09:15:44;;;;;;;15.60;11.32;;;10.60;96.70;;;;;;5057810;28;20048;-75
2024/01/15 09:18:12;;;;;;;13.35;10.80;;;10.70;96.70;;;;;;5087796;28;20585;-73
2024/01/15 09:20:42;;;;;;;12.77;10.93;;;10.70;96.70;;;;;;5055642;28;20052;-74
2024/01/15 09:23:11;;;;;;;13.43;10.30;;;10.80;96.70;;;;;;5085938;28;20589;-73
2024/01/15 09:25:39;;;;;;;11.38;10.18;;;10.80;96.70;;;;;;5071278;28;20067;-74
2024/01/15 09:28:07;;;;;;;12.15;9.75;;;10.70;96.70;;;;;;5068224;28;20129;-73
2024/01/15 09:30:36;;;;;;;11.27;9.70;;;10.70;96.70;;;;;;5068076;28;20163;-74
2024/01/15 09:33:05;;;;;;;12.93;10.80;;;10.80;96.70;;;;;;5057377;28;20135;-75
2024/01/15 09:35:33;;;;;;;12.23;9.85;;;10.90;96.70;;;;;;5047792;28;20075;-75
2024/01/15 09:38:03;;;;;;;10.82;9.35;;;10.90;96.70;;;;;;5064741;28;20105;-76
2024/01/15 09:40:33;;;;;;;11.27;10.05;;;11.00;96.70;;;;;;5067990;28;20102;-73
2024/01/15 09:43:03;;;;;;;12.75;9.35;;;11.00;96.70;;;;;;5052646;28;20459;-74
2024/01/15 09:45:31;;;;;;;10.85;9.43;;;11.10;96.70;;;;;;5072721;28;20048;-74
2024/01/15 09:48:00;;;;;;;10.32;9.23;;;11.10;96.70;;;;;;5052225;28;20056;-73
2024/01/15 09:50:28;;;;;;;12.70;10.02;;;11.20;96.70;;;;;;5057658;28;20136;-73
2024/01/15 09:52:57;;;;;;;10.38;9.20;;;11.30;96.70;;;;;;5055248;28;20066;-73
2024/01/15 09:55:28;;;;;;;10.35;9.13;;;11.30;96.70;;;;;;5070165;28;20051;-73
2024/01/15 09:57:57;;;;;;;10.02;9.00;;;11.30;96.70;;;;;;5045400;28;20060;-74
2024/01/15 10:00:26;;;;;;;10.38;9.13;;;11.30;96.70;;;;;;5056996;28;20083;-74
2024/01/15 10:02:55;;;;;;;16.13;10.93;;;11.40;96.70;;;;;;5043924;28;20048;-74
2024/01/15 10:05:24;;;;;;;9.88;8.57;;;11.40;96.70;;;;;;5069310;28;20050;-73
2024/01/15 10:07:54;;;;;;;11.98;8.95;;;11.50;96.70;;;;;;5060645;28;20113;-73
2024/01/15 10:10:23;;;;;;;11.35;9.43;;;11.50;96.70;;;;;;5065151;28;20056;-77
2024/01/15 10:12:54;;;;;;;13.10;9.77;;;11.60;96.70;;;;;;5065768;28;20056;-77
2024/01/15 10:15:23;;;;;;;10.90;8.77;;;11.70;96.70;;;;;;5072943;28;20054;-73
2024/01/15 10:17:52;;;;;;;14.05;9.82;;;11.70;96.70;;;;;;5056398;28;20060;-75
2024/01/15 10:20:23;;;;;;;13.50;10.00;;;11.80;96.70;;;;;;5047456;28;20052;-76
2024/01/15 10:22:52;;;;;;;11.82;9.13;;;11.80;96.70;;;;;;5061572;28;20083;-73
2024/01/15 10:25:25;;;;;;;10.43;9.15;;;11.90;96.70;;;;;;5047765;28;20560;-76
2024/01/15 10:28:02;;;;;;;12.18;9.18;;;11.80;96.70;;;;;;5051329;28;20256;-75
2024/01/15 10:30:32;;;;;;;10.82;8.60;;;11.80;96.70;;;;;;5046332;28;20079;-73
2024/01/15 10:33:01;;;;;;;12.00;9.35;;;11.80;96.70;;;;;;5063280;28;20052;-71
2024/01/15 10:35:30;;;;;;;12.30;8.77;;;11.80;96.70;;;;;;5084086;28;20060;-73
2024/01/15 10:37:59;;;;;;;10.55;9.18;;;11.90;96.70;;;;;;5049008;28;20084;-72
2024/01/15 10:40:27;;;;;;;11.85;9.80;;;12.10;96.70;;;;;;5059737;28;20105;-76
2024/01/15 10:42:56;;;;;;;13.05;9.65;;;12.10;96.70;;;;;;5069325;28;20659;-75
2024/01/15 10:45:26;;;;;;;10.45;9.35;;;12.30;96.70;;;;;;5052695;28;20059;-75
2024/01/15 10:48:02;;;;;;;11.48;8.57;;;12.50;96.70;;;;;;5061967;28;20463;-75
2024/01/15 10:50:32;;;;;;;14.40;9.50;;;12.70;96.70;;;;;;5072504;28;20063;-73
2024/01/15 10:53:01;;;;;;;12.82;9.30;;;12.70;96.70;;;;;;5039469;28;20060;-72
2024/01/15 10:55:30;;;;;;;11.90;9.75;;;12.80;96.70;;;;;;5066386;28;20076;-73
2024/01/15 10:57:59;;;;;;;11.40;9.68;;;12.90;96.70;;;;;;5065025;28;20063;-75
2024/01/15 11:00:30;;;;;;;12.57;9.48;;;12.90;96.70;;;;;;5063215;28;20063;-74
2024/01/15 11:03:01;;;;;;;13.10;10.98;;;13.10;96.70;;;;;;5055776;28;20064;-74
2024/01/15 11:05:36;;;;;;;14.73;9.77;;;13.10;96.70;;;;;;5074447;28;20052;-73
2024/01/15 11:08:18;;;;;;;14.20;10.57;;;12.90;96.70;;;;;;5065202;28;20056;-74
2024/01/15 11:10:51;;;;;;;11.00;9.68;;;13.00;96.70;;;;;;5072443;28;20681;-74
2024/01/15 11:13:21;;;;;;;12.45;9.63;;;13.20;96.70;;;;;;5076310;28;20060;-73
2024/01/15 11:16:02;;;;;;;13.27;8.77;;;13.30;96.70;;;;;;5050552;28;20074;-74
2024/01/15 11:18:32;;;;;;;11.25;8.75;;;13.30;96.70;;;;;;5070881;28;20689;-75
2024/01/15 11:21:27;;;;;;;11.38;8.77;;;13.30;96.70;;;;;;5086046;28;20056;-75
2024/01/15 11:24:00;;;;;;;11.55;8.13;;;13.40;96.70;;;;;;5083551;28;20837;-75
2024/01/15 11:26:37;;;;;;;11.48;8.52;;;13.40;96.70;;;;;;5050773;28;20048;-72
2024/01/15 11:29:07;;;;;;;9.95;8.13;;;13.40;96.70;;;;;;5051772;28;20052;-73
2024/01/15 11:32:05;;;;;;;9.63;7.80;;;13.50;96.70;;;;;;5056280;28;20504;-75
2024/01/15 11:35:03;;;;;;;12.07;7.78;;;13.60;96.70;;;;;;5021439;28;20156;-75
2024/01/15 11:37:59;;;;;;;10.95;7.53;;;13.60;96.70;;;;;;5062567;28;20063;-73
2024/01/15 11:40:38;;;;;;;9.68;7.50;;;13.80;96.70;;;;;;5075608;28;20117;-75
2024/01/15 11:43:09;;;;;;;11.75;6.70;;;13.90;96.70;;;;;;5055310;28;20102;-74
2024/01/15 11:45:40;;;;;;;10.02;6.82;;;13.90;96.70;;;;;;5066882;28;20123;-74
2024/01/15 11:48:15;;;;;;;10.27;7.57;;;14.00;96.70;;;;;;5068986;28;20056;-77
2024/01/15 11:50:46;;;;;;;11.18;7.03;;;14.00;96.70;;;;;;5070446;28;20056;-71
2024/01/15 11:53:18;;;;;;;8.85;6.60;;;14.10;96.70;;;;;;5067937;28;20678;-73
2024/01/15 11:55:55;;;;;;;10.40;7.00;;;14.20;96.70;;;;;;5072072;28;20053;-73
2024/01/15 11:58:25;;;;;;;11.00;6.65;;;14.10;96.70;;;;;;5055169;28;20059;-73
2024/01/15 12:00:54;;;;;;;9.40;6.40;;;14.20;96.70;;;;;;5073720;28;20082;-74
2024/01/15 12:03:25;;;;;;;10.07;7.15;;;14.30;96.70;;;;;;5073857;28;20143;-73
2024/01/15 12:05:54;;;;;;;11.95;7.68;;;14.50;96.70;;;;;;5059594;28;20571;-73
2024/01/15 12:08:23;;;;;;;12.55;7.47;;;14.50;96.70;;;;;;5056761;28;20048;-74
2024/01/15 12:10:52;;;;;;;9.73;6.90;;;14.70;96.70;;;;;;5070452;28;20138;-73
2024/01/15 12:13:21;;;;;;;13.77;6.22;;;14.70;96.70;;;;;;5041463;28;20048;-72
2024/01/15 12:15:50;;;;;;;9.50;6.10;;;14.50;96.70;;;;;;5057698;28;20455;-72
2024/01/15 12:18:19;;;;;;;10.98;6.20;;;14.40;96.70;;;;;;5056463;28;20061;-72
2024/01/15 12:20:49;;;;;;;11.02;6.53;;;14.30;96.70;;;;;;5023644;28;20595;-72
2024/01/15 12:23:17;;;;;;;15.48;7.25;;;14.50;96.70;;;;;;5050326;28;20056;-72
2024/01/15 12:25:47;;;;;;;10.07;6.30;;;14.70;96.70;;;;;;5025348;28;20122;-72
2024/01/15 12:28:17;;;;;;;13.10;6.68;;;14.80;96.70;;;;;;5050550;28;20053;-72
2024/01/15 12:30:49;;;;;;;10.23;7.00;;;14.90;96.70;;;;;;5034132;28;20152;-72
2024/01/15 12:33:21;;;;;;;11.82;7.20;;;15.00;96.70;;;;;;5051267;28;20056;-72
2024/01/15 12:35:53;;;;;;;9.80;6.32;;;15.20;96.70;;;;;;5030612;28;20049;-73
2024/01/15 12:38:23;;;;;;;8.10;6.10;;;15.40;96.70;;;;;;5045956;28;20049;-72
2024/01/15 12:40:51;;;;;;;10.43;6.28;;;15.50;96.70;;;;;;5029235;28;20056;-72
2024/01/15 12:43:19;;;;;;;9.35;5.93;;;15.60;96.70;;;;;;5046561;28;20063;-71
2024/01/15 12:45:48;;;;;;;9.07;5.47;;;15.70;96.70;;;;;;5049262;28;20143;-71
2024/01/15 12:48:17;;;;;;;13.05;5.63;;;15.80;96.70;;;;;;5050521;28;20509;-72
2024/01/15 12:50:47;;;;;;;9.00;5.38;;;15.60;96.70;;;;;;5043340;28;20052;-71
2024/01/15 12:53:17;;;;;;;9.40;6.15;;;15.60;96.70;;;;;;5030762;28;20056;-72
2024/01/15 12:55:49;;;;;;;9.88;4.72;;;15.70;96.70;;;;;;5049607;28;20056;-71
2024/01/15 12:58:17;;;;;;;7.97;4.25;;;15.30;96.70;;;;;;5027893;28;20106;-72
2024/01/15 13:00:48;;;;;;;6.95;4.53;;;15.10;96.70;;;;;;5023862;28;20086;-72
2024/01/15 13:03:16;;;;;;;7.53;4.65;;;15.20;96.70;;;;;;5065776;28;20052;-72
2024/01/15 13:05:45;;;;;;;7.45;4.75;;;15.30;96.70;;;;;;5048726;28;20049;-71
2024/01/15 13:08:13;;;;;;;9.18;5.03;;;15.60;96.70;;;;;;5023537;28;20053;-73
2024/01/15 13:10:44;;;;;;;12.57;5.93;;;15.80;96.70;;;;;;5046440;28;20048;-74
2024/01/15 13:13:12;;;;;;;10.55;5.90;;;15.70;96.70;;;;;;5044174;28;20052;-75
2024/01/15 13:15:40;;;;;;;10.40;5.22;;;15.40;96.70;;;;;;5055787;28;20057;-73
2024/01/15 13:18:09;;;;;;;10.45;4.22;;;15.10;96.70;;;;;;5040414;28;20099;-73
2024/01/15 13:20:37;;;;;;;10.30;4.05;;;14.90;96.70;;;;;;5024402;28;20088;-72
2024/01/15 13:23:06;;;;;;;6.43;3.67;;;14.70;96.70;;;;;;5077811;28;20059;-73
2024/01/15 13:25:37;;;;;;;6.95;3.08;;;14.60;96.70;;;;;;5069282;28;20560;-73
2024/01/15 13:28:10;;;;;;;6.00;2.80;;;14.50;96.70;;;;;;5052198;28;20076;-73
2024/01/15 13:30:39;;;;;;;8.32;2.92;;;14.70;96.70;;;;;;5053593;28;20504;-74
2024/01/15 13:33:08;;;;;;;5.65;2.97;;;14.80;96.70;;;;;;5031994;28;20067;-76
2024/01/15 13:35:36;;;;;;;5.10;2.70;;;15.00;96.70;;;;;;5039506;28;20102;-76
2024/01/15 13:38:04;;;;;;;4.28;2.60;;;14.90;96.70;;;;;;5044595;28;20128;-75
2024/01/15 13:40:33;;;;;;;5.05;2.70;;;14.60;96.70;;;;;;5049858;28;20049;-76
2024/01/15 13:43:06;;;;;;;4.47;2.28;;;14.60;96.70;;;;;;5037843;28;20049;-75
2024/01/15 13:45:37;;;;;;;6.68;3.15;;;14.70;96.70;;;;;;5072560;28;20752;-76
2024/01/15 13:48:08;;;;;;;6.57;3.10;;;14.70;96.70;;;;;;5062591;28;20068;-77
2024/01/15 13:50:37;;;;;;;4.53;2.95;;;14.60;96.70;;;;;;5040395;28;20052;-76
2024/01/15 13:53:05;;;;;;;3.33;2.65;;;14.50;96.70;;;;;;5039717;28;20541;-76
2024/01/15 13:55:33;;;;;;;5.10;2.72;;;14.40;96.70;;;;;;5032909;28;20060;-73
2024/01/15 13:58:03;;;;;;;4.75;2.47;;;14.20;96.70;;;;;;5038254;28;20053;-74
2024/01/15 14:00:32;;;;;;;7.57;3.13;;;14.10;96.70;;;;;;5047463;28;20048;-76
2024/01/15 14:03:02;;;;;;;4.63;2.70;;;14.00;96.70;;;;;;5040946;28;20488;-76
2024/01/15 14:05:31;;;;;;;5.20;2.65;;;14.00;96.70;;;;;;5049041;28;20076;-74
2024/01/15 14:08:00;;;;;;;4.78;2.83;;;14.00;96.70;;;;;;5033307;28;20074;-74
2024/01/15 14:10:28;;;;;;;5.70;3.22;;;13.90;96.70;;;;;;5052231;28;20143;-75
2024/01/15 14:12:57;;;;;;;5.18;3.03;;;14.00;96.70;;;;;;5044271;28;20144;-76
2024/01/15 14:15:28;;;;;;;7.25;3.38;;;14.00;96.70;;;;;;5066090;28;20078;-75
2024/01/15 14:17:57;;;;;;;7.35;3.25;;;14.10;96.70;;;;;;5051339;28;20780;-75
2024/01/15 14:20:28;;;;;;;7.68;3.78;;;14.20;96.70;;;;;;5045340;28;21202;-74